createdAt,value
2023-01-06T00:00:36.759Z,89.64
2023-01-06T00:01:36.576Z,90.16
2023-01-06T00:02:36.612Z,89.75
2023-01-06T00:03:36.609Z,89.85
2023-01-06T00:04:36.658Z,90.06
2023-01-06T00:05:36.538Z,89.08
2023-01-06T00:06:36.526Z,89.75
2023-01-06T00:07:36.517Z,89.01
2023-01-06T00:08:36.508Z,88.24
2023-01-06T00:09:36.634Z,87.93
2023-01-06T00:10:36.482Z,88.29
2023-01-06T00:11:36.473Z,89.54
2023-01-06T00:12:36.471Z,89.32
2023-01-06T00:13:36.472Z,89.54
2023-01-06T00:14:36.444Z,89.64
2023-01-06T00:15:36.512Z,89.43
2023-01-06T00:16:36.427Z,89.75
2023-01-06T00:17:36.418Z,89.32
2023-01-06T00:18:36.411Z,89.32
2023-01-06T00:19:36.398Z,88.39
2023-01-06T00:20:36.395Z,89.54
2023-01-06T00:21:36.409Z,89.22
2023-01-06T00:22:36.354Z,88.22
2023-01-06T00:23:36.370Z,87.76
2023-01-06T00:24:36.343Z,87.35
2023-01-06T00:25:36.446Z,87.97
2023-01-06T00:26:36.317Z,87.55
2023-01-06T00:27:36.327Z,87.87
2023-01-06T00:28:36.298Z,87.97
2023-01-06T00:29:36.286Z,88.12
2023-01-06T00:30:36.285Z,88.75
2023-01-06T00:31:36.261Z,89.78
2023-01-06T00:32:36.285Z,90.00
2023-01-06T00:33:36.278Z,90.20
2023-01-06T00:34:36.259Z,89.47
2023-01-06T00:35:36.216Z,89.37
2023-01-06T00:36:36.211Z,89.20
2023-01-06T00:37:36.204Z,89.37
2023-01-06T00:38:36.253Z,89.16
2023-01-06T00:39:36.218Z,89.41
2023-01-06T00:40:36.177Z,88.99
2023-01-06T00:41:36.276Z,89.37
2023-01-06T00:42:36.145Z,89.58
2023-01-06T00:43:36.147Z,89.72
2023-01-06T00:44:36.120Z,89.62
2023-01-06T00:45:36.182Z,89.20
2023-01-06T00:46:36.162Z,89.37
2023-01-06T00:47:36.092Z,88.53
2023-01-06T00:48:36.078Z,89.62
2023-01-06T00:49:36.073Z,88.95
2023-01-06T00:50:36.076Z,89.58
2023-01-06T00:51:36.114Z,89.47
2023-01-06T00:52:36.037Z,89.58
2023-01-06T00:53:36.026Z,89.20
2023-01-06T00:54:36.018Z,89.58
2023-01-06T00:55:36.013Z,88.85
2023-01-06T00:56:36.011Z,89.20
2023-01-06T00:57:36.109Z,89.10
2023-01-06T00:58:35.972Z,89.06
2023-01-06T00:59:35.969Z,89.62
2023-01-06T01:00:35.949Z,89.37
2023-01-06T01:01:36.134Z,89.83
2023-01-06T01:02:36.107Z,89.06
2023-01-06T01:03:35.998Z,89.41
2023-01-06T01:04:35.934Z,89.68
2023-01-06T01:05:35.913Z,89.89
2023-01-06T01:06:35.887Z,89.83
2023-01-06T01:07:35.882Z,89.68
2023-01-06T01:08:35.975Z,89.93
2023-01-06T01:09:35.909Z,90.03
2023-01-06T01:10:35.844Z,90.00
2023-01-06T01:11:35.841Z,89.51
2023-01-06T01:12:35.839Z,90.25
2023-01-06T01:13:35.933Z,89.72
2023-01-06T01:14:35.814Z,89.72
2023-01-06T01:15:35.857Z,90.25
2023-01-06T01:16:35.781Z,90.14
2023-01-06T01:17:35.796Z,90.08
2023-01-06T01:18:35.760Z,90.03
2023-01-06T01:19:35.747Z,90.03
2023-01-06T01:20:35.735Z,90.25
2023-01-06T01:21:35.767Z,89.93
2023-01-06T01:22:35.724Z,90.03
2023-01-06T01:23:35.712Z,89.62
2023-01-06T01:24:35.691Z,90.25
2023-01-06T01:25:35.692Z,90.03
2023-01-06T01:26:35.671Z,90.28
2023-01-06T01:27:35.723Z,90.14
2023-01-06T01:28:35.659Z,89.72
2023-01-06T01:29:35.758Z,89.10
2023-01-06T01:30:35.630Z,89.47
2023-01-06T01:31:35.621Z,89.37
2023-01-06T01:32:35.606Z,89.72
2023-01-06T01:33:35.661Z,89.72
2023-01-06T01:34:35.589Z,89.83
2023-01-06T01:35:35.586Z,89.87
2023-01-06T01:36:35.561Z,89.62
2023-01-06T01:37:35.594Z,89.10
2023-01-06T01:38:35.579Z,89.51
2023-01-06T01:39:35.671Z,89.66
2023-01-06T01:40:35.522Z,89.62
2023-01-06T01:41:35.513Z,89.10
2023-01-06T01:42:35.501Z,88.99
2023-01-06T01:43:35.492Z,88.16
2023-01-06T01:44:35.478Z,88.37
2023-01-06T01:45:35.695Z,88.09
2023-01-06T01:46:35.500Z,87.91
2023-01-06T01:47:35.448Z,87.81
2023-01-06T01:48:35.452Z,87.74
2023-01-06T01:49:35.429Z,88.47
2023-01-06T01:50:35.415Z,87.95
2023-01-06T01:51:35.459Z,88.06
2023-01-06T01:52:35.393Z,87.95
2023-01-06T01:53:35.385Z,88.06
2023-01-06T01:54:35.478Z,88.09
2023-01-06T01:55:35.364Z,88.06
2023-01-06T01:56:35.355Z,88.41
2023-01-06T01:57:35.380Z,88.37
2023-01-06T01:58:35.329Z,88.06
2023-01-06T01:59:35.324Z,88.47
2023-01-06T02:00:35.321Z,87.95
2023-01-06T02:01:35.547Z,87.95
2023-01-06T02:02:35.443Z,88.41
2023-01-06T02:03:35.334Z,88.37
2023-01-06T02:04:35.271Z,88.47
2023-01-06T02:05:35.255Z,88.57
2023-01-06T02:06:35.246Z,88.57
2023-01-06T02:07:35.235Z,88.68
2023-01-06T02:08:35.219Z,88.47
2023-01-06T02:09:35.269Z,88.68
2023-01-06T02:10:35.215Z,88.12
2023-01-06T02:11:35.192Z,88.99
2023-01-06T02:12:35.179Z,88.37
2023-01-06T02:13:35.184Z,88.26
2023-01-06T02:14:35.180Z,88.06
2023-01-06T02:15:35.185Z,88.20
2023-01-06T02:16:35.145Z,88.72
2023-01-06T02:17:35.239Z,88.20
2023-01-06T02:18:35.114Z,88.30
2023-01-06T02:19:35.112Z,88.82
2023-01-06T02:20:35.091Z,88.30
2023-01-06T02:21:35.115Z,88.37
2023-01-06T02:22:35.083Z,88.37
2023-01-06T02:23:35.060Z,88.09
2023-01-06T02:24:35.050Z,88.06
2023-01-06T02:25:35.067Z,87.84
2023-01-06T02:26:35.029Z,87.63
2023-01-06T02:27:35.044Z,87.32
2023-01-06T02:28:35.004Z,87.32
2023-01-06T02:29:34.996Z,87.43
2023-01-06T02:30:34.993Z,87.32
2023-01-06T02:31:34.974Z,87.43
2023-01-06T02:32:34.960Z,87.53
2023-01-06T02:33:35.101Z,87.53
2023-01-06T02:34:34.947Z,87.53
2023-01-06T02:35:34.931Z,86.66
2023-01-06T02:36:34.935Z,86.97
2023-01-06T02:37:34.912Z,86.76
2023-01-06T02:38:34.896Z,87.43
2023-01-06T02:39:34.933Z,87.63
2023-01-06T02:40:34.874Z,87.39
2023-01-06T02:41:34.868Z,86.91
2023-01-06T02:42:34.865Z,86.66
2023-01-06T02:43:34.852Z,86.66
2023-01-06T02:44:34.832Z,86.97
2023-01-06T02:45:34.860Z,87.07
2023-01-06T02:46:34.840Z,87.28
2023-01-06T02:47:34.805Z,86.69
2023-01-06T02:48:34.809Z,87.32
2023-01-06T02:49:34.895Z,86.59
2023-01-06T02:50:34.878Z,85.76
2023-01-06T02:51:34.789Z,85.82
2023-01-06T02:52:34.746Z,85.30
2023-01-06T02:53:34.754Z,84.78
2023-01-06T02:54:34.724Z,84.78
2023-01-06T02:55:34.715Z,84.99
2023-01-06T02:56:34.721Z,84.99
2023-01-06T02:57:34.748Z,84.88
2023-01-06T02:58:34.684Z,85.20
2023-01-06T02:59:34.676Z,84.99
2023-01-06T03:00:34.683Z,85.97
2023-01-06T03:01:34.797Z,85.24
2023-01-06T03:02:34.647Z,84.72
2023-01-06T03:03:34.672Z,85.76
2023-01-06T03:04:34.676Z,85.55
2023-01-06T03:05:34.631Z,85.13
2023-01-06T03:06:34.620Z,85.24
2023-01-06T03:07:34.589Z,85.86
2023-01-06T03:08:34.576Z,84.88
2023-01-06T03:09:34.598Z,85.65
2023-01-06T03:10:34.556Z,86.55
2023-01-06T03:11:34.557Z,86.28
2023-01-06T03:12:34.545Z,87.84
2023-01-06T03:13:34.527Z,87.53
2023-01-06T03:14:34.511Z,86.63
2023-01-06T03:15:34.543Z,85.97
2023-01-06T03:16:34.509Z,86.07
2023-01-06T03:17:34.483Z,86.38
2023-01-06T03:18:34.481Z,86.07
2023-01-06T03:19:34.461Z,85.34
2023-01-06T03:20:34.452Z,85.76
2023-01-06T03:21:34.635Z,86.59
2023-01-06T03:22:34.445Z,85.97
2023-01-06T03:23:34.420Z,85.80
2023-01-06T03:24:34.405Z,85.34
2023-01-06T03:25:34.397Z,84.16
2023-01-06T03:26:34.391Z,84.50
2023-01-06T03:27:34.442Z,84.72
2023-01-06T03:28:34.362Z,85.44
2023-01-06T03:29:34.358Z,85.86
2023-01-06T03:30:34.344Z,85.17
2023-01-06T03:31:34.484Z,83.57
2023-01-06T03:32:34.321Z,82.73
2023-01-06T03:33:34.364Z,82.73
2023-01-06T03:34:34.353Z,83.36
2023-01-06T03:35:34.292Z,85.17
2023-01-06T03:36:34.279Z,85.21
2023-01-06T03:37:34.404Z,86.25
2023-01-06T03:38:34.259Z,85.94
2023-01-06T03:39:34.295Z,84.23
2023-01-06T03:40:34.247Z,84.23
2023-01-06T03:41:34.231Z,83.47
2023-01-06T03:42:36.338Z,83.40
2023-01-06T03:43:34.216Z,83.81
2023-01-06T03:44:34.194Z,84.61
2023-01-06T03:45:34.231Z,84.61
2023-01-06T03:46:34.236Z,84.19
2023-01-06T03:47:34.167Z,84.02
2023-01-06T03:48:34.164Z,83.57
2023-01-06T03:49:34.146Z,84.30
2023-01-06T03:50:34.152Z,85.27
2023-01-06T03:51:34.156Z,85.38
2023-01-06T03:52:34.115Z,86.32
2023-01-06T03:53:34.125Z,87.09
2023-01-06T03:54:34.162Z,86.74
2023-01-06T03:55:34.085Z,86.00
2023-01-06T03:56:34.072Z,85.27
2023-01-06T03:57:34.127Z,85.44
2023-01-06T03:58:34.044Z,84.82
2023-01-06T03:59:34.140Z,84.92
2023-01-06T04:00:34.083Z,84.72
2023-01-06T04:01:34.095Z,84.05
2023-01-06T04:02:34.005Z,83.74
2023-01-06T04:03:34.074Z,84.30
2023-01-06T04:04:33.996Z,84.16
2023-01-06T04:05:33.993Z,84.67
2023-01-06T04:06:33.961Z,84.47
2023-01-06T04:07:33.962Z,85.20
2023-01-06T04:08:33.938Z,84.50
2023-01-06T04:09:34.070Z,84.57
2023-01-06T04:10:33.936Z,84.99
2023-01-06T04:11:33.914Z,85.10
2023-01-06T04:12:33.907Z,84.33
2023-01-06T04:13:33.897Z,84.16
2023-01-06T04:14:33.903Z,84.26
2023-01-06T04:15:33.920Z,84.67
2023-01-06T04:16:33.961Z,84.78
2023-01-06T04:17:33.849Z,84.88
2023-01-06T04:18:33.843Z,85.05
2023-01-06T04:19:33.848Z,85.05
2023-01-06T04:20:33.822Z,85.26
2023-01-06T04:21:33.847Z,85.05
2023-01-06T04:22:33.791Z,84.78
2023-01-06T04:23:33.784Z,84.78
2023-01-06T04:24:33.954Z,84.74
2023-01-06T04:25:33.888Z,84.26
2023-01-06T04:26:33.758Z,83.63
2023-01-06T04:27:33.764Z,83.53
2023-01-06T04:28:33.732Z,82.34
2023-01-06T04:29:33.721Z,82.59
2023-01-06T04:30:33.724Z,82.70
2023-01-06T04:31:35.524Z,82.07
2023-01-06T04:32:33.685Z,81.86
2023-01-06T04:33:33.717Z,81.23
2023-01-06T04:34:33.664Z,81.13
2023-01-06T04:35:33.666Z,80.30
2023-01-06T04:36:33.653Z,80.19
2023-01-06T04:37:33.649Z,80.05
2023-01-06T04:38:33.670Z,79.74
2023-01-06T04:39:33.647Z,79.74
2023-01-06T04:40:33.602Z,79.43
2023-01-06T04:41:33.713Z,79.32
2023-01-06T04:42:33.589Z,78.91
2023-01-06T04:43:33.682Z,78.80
2023-01-06T04:44:33.556Z,78.77
2023-01-06T04:45:33.663Z,79.67
2023-01-06T04:46:33.535Z,80.40
2023-01-06T04:47:33.528Z,80.51
2023-01-06T04:48:33.524Z,80.82
2023-01-06T04:49:33.529Z,81.38
2023-01-06T04:50:33.492Z,81.38
2023-01-06T04:51:33.541Z,80.96
2023-01-06T04:52:33.473Z,79.71
2023-01-06T04:53:33.463Z,78.87
2023-01-06T04:54:33.560Z,78.94
2023-01-06T04:55:33.450Z,79.15
2023-01-06T04:56:33.433Z,78.56
2023-01-06T04:57:33.554Z,78.56
2023-01-06T04:58:33.415Z,78.94
2023-01-06T04:59:33.398Z,79.39
2023-01-06T05:00:33.407Z,78.42
2023-01-06T05:01:33.462Z,77.17
2023-01-06T05:02:33.369Z,77.90
2023-01-06T05:03:33.408Z,76.96
2023-01-06T05:04:46.593Z,75.81
2023-01-06T05:05:34.363Z,75.92
2023-01-06T05:06:33.326Z,76.54
2023-01-06T05:07:33.340Z,74.35
2023-01-06T05:08:33.309Z,74.07
2023-01-06T05:09:33.328Z,73.93
2023-01-06T05:10:33.284Z,73.93
2023-01-06T05:11:33.284Z,76.02
2023-01-06T05:12:33.282Z,75.92
2023-01-06T05:13:33.369Z,74.46
2023-01-06T05:14:33.257Z,74.04
2023-01-06T05:15:33.268Z,74.87
2023-01-06T05:16:33.298Z,74.66
2023-01-06T05:17:33.206Z,74.28
2023-01-06T05:18:33.240Z,72.58
2023-01-06T05:19:33.187Z,72.47
2023-01-06T05:20:33.197Z,72.47
2023-01-06T05:21:33.247Z,73.21
2023-01-06T05:22:33.157Z,72.58
2023-01-06T05:23:33.142Z,72.34
2023-01-06T05:24:33.147Z,72.02
2023-01-06T05:25:33.126Z,71.37
2023-01-06T05:26:33.118Z,72.09
2023-01-06T05:27:33.157Z,72.51
2023-01-06T05:28:33.098Z,72.24
2023-01-06T05:29:33.250Z,72.41
2023-01-06T05:30:33.073Z,71.99
2023-01-06T05:31:33.123Z,71.58
2023-01-06T05:32:33.051Z,72.34
2023-01-06T05:33:33.061Z,72.75
2023-01-06T05:34:33.058Z,72.72
2023-01-06T05:35:33.015Z,72.34
2023-01-06T05:36:33.065Z,72.41
2023-01-06T05:37:32.994Z,71.78
2023-01-06T05:38:34.320Z,70.95
2023-01-06T05:39:32.975Z,70.74
2023-01-06T05:40:32.973Z,70.40
2023-01-06T05:41:32.992Z,70.92
2023-01-06T05:42:32.945Z,71.12
2023-01-06T05:43:32.943Z,70.64
2023-01-06T05:44:32.924Z,70.19
2023-01-06T05:45:33.080Z,69.77
2023-01-06T05:46:32.919Z,70.40
2023-01-06T05:47:32.925Z,70.92
2023-01-06T05:48:32.893Z,71.89
2023-01-06T05:49:32.866Z,71.68
2023-01-06T05:50:32.859Z,72.72
2023-01-06T05:51:32.853Z,72.41
2023-01-06T05:52:32.837Z,72.83
2023-01-06T05:53:32.865Z,72.51
2023-01-06T05:54:32.827Z,71.68
2023-01-06T05:55:32.803Z,69.49
2023-01-06T05:56:32.896Z,69.46
2023-01-06T05:57:32.782Z,68.10
2023-01-06T05:58:32.775Z,68.84
2023-01-06T05:59:32.804Z,68.18
2023-01-06T06:00:32.752Z,69.64
2023-01-06T06:01:32.919Z,68.84
2023-01-06T06:02:32.778Z,68.70
2023-01-06T06:03:32.803Z,68.80
2023-01-06T06:04:32.712Z,68.73
2023-01-06T06:05:32.751Z,68.63
2023-01-06T06:06:32.701Z,66.02
2023-01-06T06:07:32.675Z,66.51
2023-01-06T06:08:32.680Z,66.93
2023-01-06T06:09:32.656Z,67.27
2023-01-06T06:10:32.645Z,69.67
2023-01-06T06:11:32.664Z,68.94
2023-01-06T06:12:32.624Z,68.73
2023-01-06T06:13:32.622Z,69.38
2023-01-06T06:14:32.604Z,69.28
2023-01-06T06:15:32.601Z,69.49
2023-01-06T06:16:32.633Z,68.76
2023-01-06T06:17:32.684Z,68.66
2023-01-06T06:18:32.573Z,68.13
2023-01-06T06:19:32.544Z,67.90
2023-01-06T06:20:32.552Z,69.25
2023-01-06T06:21:32.529Z,70.25
2023-01-06T06:22:32.517Z,70.07
2023-01-06T06:23:32.541Z,69.87
2023-01-06T06:24:32.518Z,70.18
2023-01-06T06:25:32.485Z,70.28
2023-01-06T06:26:32.475Z,69.66
2023-01-06T06:27:32.478Z,68.07
2023-01-06T06:28:32.452Z,69.10
2023-01-06T06:29:32.472Z,68.17
2023-01-06T06:30:32.442Z,67.13
2023-01-06T06:31:32.487Z,67.72
2023-01-06T06:32:32.410Z,67.41
2023-01-06T06:33:32.527Z,69.07
2023-01-06T06:34:32.400Z,67.10
2023-01-06T06:35:32.411Z,67.30
2023-01-06T06:36:32.381Z,68.17
2023-01-06T06:37:32.357Z,69.07
2023-01-06T06:38:32.361Z,67.61
2023-01-06T06:39:32.335Z,65.95
2023-01-06T06:40:32.336Z,66.33
2023-01-06T06:41:32.353Z,67.51
2023-01-06T06:42:32.304Z,67.10
2023-01-06T06:43:32.354Z,68.13
2023-01-06T06:44:32.282Z,64.59
2023-01-06T06:45:32.371Z,65.01
2023-01-06T06:46:32.274Z,65.19
2023-01-06T06:47:32.282Z,63.97
2023-01-06T06:48:32.240Z,64.04
2023-01-06T06:49:32.339Z,63.84
2023-01-06T06:50:32.228Z,63.94
2023-01-06T06:51:32.211Z,63.49
2023-01-06T06:52:32.210Z,62.55
2023-01-06T06:53:32.326Z,62.55
2023-01-06T06:54:32.186Z,62.76
2023-01-06T06:55:32.163Z,63.18
2023-01-06T06:56:32.155Z,64.53
2023-01-06T06:57:32.142Z,63.60
2023-01-06T06:58:32.134Z,64.12
2023-01-06T06:59:32.171Z,64.53
2023-01-06T07:00:32.117Z,64.64
2023-01-06T07:01:32.305Z,63.29
2023-01-06T07:02:32.109Z,61.80
2023-01-06T07:03:32.080Z,62.22
2023-01-06T07:04:32.103Z,62.11
2023-01-06T07:05:32.229Z,62.22
2023-01-06T07:06:32.052Z,62.63
2023-01-06T07:07:32.063Z,62.63
2023-01-06T07:08:32.038Z,61.59
2023-01-06T07:09:32.023Z,62.01
2023-01-06T07:10:32.007Z,61.04
2023-01-06T07:11:32.026Z,60.94
2023-01-06T07:12:31.999Z,60.73
2023-01-06T07:13:31.981Z,61.15
2023-01-06T07:14:31.974Z,61.12
2023-01-06T07:15:32.015Z,61.46
2023-01-06T07:16:31.951Z,61.02
2023-01-06T07:17:31.982Z,59.88
2023-01-06T07:18:31.921Z,60.39
2023-01-06T07:19:31.916Z,61.33
2023-01-06T07:20:31.953Z,61.12
2023-01-06T07:21:32.015Z,58.81
2023-01-06T07:22:31.890Z,58.52
2023-01-06T07:23:31.902Z,59.14
2023-01-06T07:24:31.866Z,60.26
2023-01-06T07:25:31.846Z,61.74
2023-01-06T07:26:31.848Z,63.20
2023-01-06T07:27:31.822Z,64.48
2023-01-06T07:28:31.814Z,65.20
2023-01-06T07:29:31.854Z,63.02
2023-01-06T07:30:31.791Z,60.63
2023-01-06T07:31:31.864Z,60.60
2023-01-06T07:32:31.770Z,61.46
2023-01-06T07:33:31.773Z,61.64
2023-01-06T07:34:31.753Z,61.77
2023-01-06T07:35:31.797Z,61.64
2023-01-06T07:36:31.731Z,63.20
2023-01-06T07:37:31.843Z,63.82
2023-01-06T07:38:31.747Z,63.93
2023-01-06T07:39:31.707Z,62.88
2023-01-06T07:40:31.686Z,64.24
2023-01-06T07:41:31.712Z,65.20
2023-01-06T07:42:31.661Z,64.89
2023-01-06T07:43:31.650Z,63.75
2023-01-06T07:44:31.644Z,63.85
2023-01-06T07:45:31.645Z,64.27
2023-01-06T07:46:31.696Z,63.82
2023-01-06T07:47:31.650Z,64.79
2023-01-06T07:48:31.596Z,64.06
2023-01-06T07:49:31.597Z,63.85
2023-01-06T07:50:31.573Z,64.06
2023-01-06T07:51:31.577Z,64.27
2023-01-06T07:52:31.556Z,65.10
2023-01-06T07:53:31.674Z,64.37
2023-01-06T07:54:31.553Z,63.75
2023-01-06T07:55:31.531Z,66.45
2023-01-06T07:56:31.514Z,66.80
2023-01-06T07:57:31.512Z,64.79
2023-01-06T07:58:31.491Z,64.69
2023-01-06T07:59:31.547Z,62.78
2023-01-06T08:00:31.589Z,61.74
2023-01-06T08:01:31.585Z,64.97
2023-01-06T08:02:31.591Z,63.82
2023-01-06T08:03:31.447Z,63.69
2023-01-06T08:04:31.426Z,63.90
2023-01-06T08:05:31.451Z,62.13
2023-01-06T08:06:31.422Z,64.21
2023-01-06T08:07:31.390Z,63.09
2023-01-06T08:08:31.381Z,60.99
2023-01-06T08:09:31.506Z,63.38
2023-01-06T08:10:31.365Z,64.03
2023-01-06T08:11:31.379Z,64.14
2023-01-06T08:12:31.347Z,64.03
2023-01-06T08:13:31.328Z,65.10
2023-01-06T08:14:31.339Z,64.86
2023-01-06T08:15:31.307Z,64.58
2023-01-06T08:16:31.295Z,62.45
2023-01-06T08:17:31.333Z,59.88
2023-01-06T08:18:31.289Z,59.56
2023-01-06T08:19:31.269Z,60.91
2023-01-06T08:20:31.256Z,61.22
2023-01-06T08:21:31.242Z,61.40
2023-01-06T08:22:31.235Z,62.34
2023-01-06T08:23:31.253Z,63.69
2023-01-06T08:24:32.594Z,65.07
2023-01-06T08:25:31.346Z,64.14
2023-01-06T08:26:31.207Z,64.34
2023-01-06T08:27:31.196Z,62.65
2023-01-06T08:28:31.163Z,62.68
2023-01-06T08:29:31.177Z,60.57
2023-01-06T08:30:31.155Z,58.18
2023-01-06T08:31:31.178Z,61.19
2023-01-06T08:32:31.133Z,60.86
2023-01-06T08:33:31.142Z,59.92
2023-01-06T08:34:31.100Z,59.27
2023-01-06T08:35:31.128Z,59.79
2023-01-06T08:36:31.081Z,59.79
2023-01-06T08:37:31.071Z,59.58
2023-01-06T08:38:31.062Z,60.41
2023-01-06T08:39:31.083Z,60.83
2023-01-06T08:40:31.033Z,64.15
2023-01-06T08:41:31.154Z,63.66
2023-01-06T08:42:31.023Z,60.24
2023-01-06T08:43:31.005Z,59.19
2023-01-06T08:44:30.994Z,57.61
2023-01-06T08:45:30.980Z,58.44
2023-01-06T08:46:30.994Z,58.96
2023-01-06T08:47:31.008Z,60.86
2023-01-06T08:48:30.958Z,63.35
2023-01-06T08:49:30.937Z,62.52
2023-01-06T08:50:30.926Z,61.90
2023-01-06T08:51:30.917Z,59.71
2023-01-06T08:52:30.904Z,60.55
2023-01-06T08:53:30.989Z,59.48
2023-01-06T08:54:30.889Z,63.32
2023-01-06T08:55:30.876Z,62.41
2023-01-06T08:56:30.860Z,60.52
2023-01-06T08:57:30.968Z,59.89
2023-01-06T08:58:30.838Z,60.10
2023-01-06T08:59:30.892Z,58.21
2023-01-06T09:00:30.818Z,56.76
2023-01-06T09:01:30.957Z,56.10
2023-01-06T09:02:30.869Z,56.73
2023-01-06T09:03:30.799Z,56.52
2023-01-06T09:04:30.794Z,57.04
2023-01-06T09:05:30.812Z,62.26
2023-01-06T09:06:30.752Z,62.15
2023-01-06T09:07:30.751Z,63.42
2023-01-06T09:08:30.734Z,63.94
2023-01-06T09:09:30.733Z,60.00
2023-01-06T09:10:30.711Z,59.48
2023-01-06T09:11:30.725Z,60.41
2023-01-06T09:12:30.691Z,59.17
2023-01-06T09:13:30.790Z,56.88
2023-01-06T09:14:30.707Z,56.03
2023-01-06T09:15:30.686Z,55.85
2023-01-06T09:16:30.651Z,57.79
2023-01-06T09:17:30.678Z,59.77
2023-01-06T09:18:30.630Z,57.38
2023-01-06T09:19:30.648Z,58.07
2023-01-06T09:20:30.605Z,55.38
2023-01-06T09:21:30.591Z,54.03
2023-01-06T09:22:30.587Z,55.69
2023-01-06T09:23:30.618Z,54.13
2023-01-06T09:24:30.570Z,53.90
2023-01-06T09:25:30.567Z,53.67
2023-01-06T09:26:30.546Z,54.21
2023-01-06T09:27:30.531Z,52.64
2023-01-06T09:28:30.519Z,51.06
2023-01-06T09:29:30.631Z,51.47
2023-01-06T09:30:30.495Z,51.06
2023-01-06T09:31:30.529Z,51.99
2023-01-06T09:32:30.483Z,54.06
2023-01-06T09:33:30.462Z,53.77
2023-01-06T09:34:30.452Z,51.18
2023-01-06T09:35:30.494Z,51.68
2023-01-06T09:36:30.445Z,50.10
2023-01-06T09:37:30.431Z,49.38
2023-01-06T09:38:30.429Z,48.99
2023-01-06T09:39:30.408Z,48.96
2023-01-06T09:40:30.389Z,49.90
2023-01-06T09:41:30.399Z,48.94
2023-01-06T09:42:30.370Z,48.01
2023-01-06T09:43:30.354Z,48.83
2023-01-06T09:44:30.365Z,49.46
2023-01-06T09:45:30.455Z,49.46
2023-01-06T09:46:30.370Z,49.52
2023-01-06T09:47:30.369Z,47.80
2023-01-06T09:48:30.306Z,46.08
2023-01-06T09:49:30.305Z,46.00
2023-01-06T09:50:30.283Z,44.00
2023-01-06T09:51:30.276Z,42.13
2023-01-06T09:52:30.277Z,42.00
2023-01-06T09:53:30.279Z,44.02
2023-01-06T09:54:30.274Z,45.10
2023-01-06T09:55:30.226Z,44.26
2023-01-06T09:56:30.218Z,40.97
2023-01-06T09:57:30.203Z,41.97
2023-01-06T09:58:30.196Z,41.46
2023-01-06T09:59:30.225Z,40.95
2023-01-06T10:00:30.185Z,39.94
2023-01-06T10:01:30.429Z,42.07
2023-01-06T10:02:30.232Z,40.93
2023-01-06T10:03:30.161Z,40.54
2023-01-06T10:04:30.148Z,40.45
2023-01-06T10:05:30.161Z,40.37
2023-01-06T10:06:30.183Z,42.95
2023-01-06T10:07:30.094Z,43.94
2023-01-06T10:08:30.099Z,46.37
2023-01-06T10:09:30.076Z,46.66
2023-01-06T10:10:30.072Z,46.23
2023-01-06T10:11:30.086Z,45.10
2023-01-06T10:12:30.053Z,43.67
2023-01-06T10:13:30.143Z,43.85
2023-01-06T10:14:30.025Z,43.76
2023-01-06T10:15:30.021Z,43.55
2023-01-06T10:16:30.157Z,42.53
2023-01-06T10:17:30.119Z,42.73
2023-01-06T10:18:29.977Z,41.91
2023-01-06T10:19:29.982Z,41.08
2023-01-06T10:20:29.956Z,41.83
2023-01-06T10:21:29.945Z,40.93
2023-01-06T10:22:29.942Z,41.44
2023-01-06T10:23:29.951Z,41.09
2023-01-06T10:24:29.911Z,40.30
2023-01-06T10:25:29.901Z,42.32
2023-01-06T10:26:29.911Z,40.79
2023-01-06T10:27:29.884Z,41.61
2023-01-06T10:28:29.889Z,41.28
2023-01-06T10:29:29.869Z,41.61
2023-01-06T10:30:30.868Z,41.09
2023-01-06T10:31:29.913Z,40.30
2023-01-06T10:32:29.829Z,41.61
2023-01-06T10:33:29.969Z,40.60
2023-01-06T10:34:29.817Z,40.93
2023-01-06T10:35:29.833Z,41.93
2023-01-06T10:36:29.800Z,42.94
2023-01-06T10:37:29.786Z,43.26
2023-01-06T10:38:29.770Z,41.73
2023-01-06T10:39:29.749Z,43.44
2023-01-06T10:40:29.743Z,43.98
2023-01-06T10:41:29.786Z,43.06
2023-01-06T10:42:29.719Z,42.65
2023-01-06T10:43:29.730Z,43.55
2023-01-06T10:44:29.701Z,43.55
2023-01-06T10:45:29.683Z,42.96
2023-01-06T10:46:29.730Z,44.90
2023-01-06T10:47:29.744Z,42.65
2023-01-06T10:48:29.659Z,43.37
2023-01-06T10:49:29.885Z,43.37
2023-01-06T10:50:29.639Z,44.08
2023-01-06T10:51:29.624Z,43.88
2023-01-06T10:52:29.619Z,43.35
2023-01-06T10:53:29.640Z,42.63
2023-01-06T10:54:29.594Z,43.96
2023-01-06T10:55:29.589Z,43.04
2023-01-06T10:56:29.573Z,42.41
2023-01-06T10:57:29.563Z,43.43
2023-01-06T10:58:29.577Z,40.97
2023-01-06T10:59:29.623Z,41.88
2023-01-06T11:00:29.571Z,41.55
2023-01-06T11:01:29.646Z,41.04
2023-01-06T11:02:29.654Z,42.08
2023-01-06T11:03:34.437Z,42.18
2023-01-06T11:04:30.493Z,42.06
2023-01-06T11:05:29.608Z,40.81
2023-01-06T11:06:29.465Z,39.59
2023-01-06T11:07:29.585Z,39.18
2023-01-06T11:08:29.444Z,41.61
2023-01-06T11:09:29.431Z,40.19
2023-01-06T11:10:29.427Z,40.19
2023-01-06T11:11:29.577Z,43.65
2023-01-06T11:12:29.400Z,41.71
2023-01-06T11:13:29.403Z,44.18
2023-01-06T11:14:29.384Z,44.69
2023-01-06T11:15:29.384Z,45.77
2023-01-06T11:16:29.496Z,43.94
2023-01-06T11:17:29.375Z,43.10
2023-01-06T11:18:29.337Z,41.75
2023-01-06T11:19:29.328Z,43.02
2023-01-06T11:20:29.317Z,42.51
2023-01-06T11:21:29.414Z,41.41
2023-01-06T11:23:29.300Z,44.08
2023-01-06T11:24:29.270Z,43.57
2023-01-06T11:25:29.263Z,41.83
2023-01-06T11:26:29.249Z,42.24
2023-01-06T11:27:29.234Z,42.29
2023-01-06T11:28:29.236Z,42.79
2023-01-06T11:29:29.230Z,42.90
2023-01-06T11:30:29.216Z,43.90
2023-01-06T11:31:29.225Z,43.20
2023-01-06T11:32:29.180Z,44.35
2023-01-06T11:33:29.199Z,44.92
2023-01-06T11:34:29.220Z,44.00
2023-01-06T11:35:29.171Z,42.47
2023-01-06T11:36:29.134Z,42.77
2023-01-06T11:37:29.235Z,43.71
2023-01-06T11:38:29.114Z,43.82
2023-01-06T11:39:29.116Z,43.59
2023-01-06T11:40:29.091Z,43.77
2023-01-06T11:41:29.116Z,43.59
2023-01-06T11:42:29.070Z,43.79
2023-01-06T11:43:29.070Z,43.79
2023-01-06T11:44:29.050Z,43.59
2023-01-06T11:45:29.170Z,44.12
2023-01-06T11:46:29.033Z,43.32
2023-01-06T11:47:29.012Z,44.04
2023-01-06T11:48:29.004Z,45.73
2023-01-06T11:49:28.988Z,43.47
2023-01-06T11:50:28.979Z,43.75
2023-01-06T11:51:28.983Z,43.71
2023-01-06T11:52:28.982Z,43.00
2023-01-06T11:53:29.067Z,43.20
2023-01-06T11:54:28.938Z,43.69
2023-01-06T11:55:28.925Z,42.21
2023-01-06T11:56:28.921Z,42.82
2023-01-06T11:57:28.919Z,43.94
2023-01-06T11:58:28.915Z,44.83
2023-01-06T11:59:28.878Z,43.63
2023-01-06T12:00:28.871Z,43.65
2023-01-06T12:01:28.890Z,45.36
2023-01-06T12:02:28.922Z,43.61
2023-01-06T12:03:28.892Z,44.83
2023-01-06T12:04:28.861Z,43.71
2023-01-06T12:05:28.812Z,43.71
2023-01-06T12:06:28.803Z,43.73
2023-01-06T12:07:28.803Z,46.69
2023-01-06T12:08:28.782Z,44.87
2023-01-06T12:09:28.884Z,44.87
2023-01-06T12:10:28.802Z,45.49
2023-01-06T12:11:28.746Z,43.63
2023-01-06T12:12:28.748Z,43.73
2023-01-06T12:13:28.725Z,43.96
2023-01-06T12:14:29.852Z,43.53
2023-01-06T12:15:28.716Z,43.53
2023-01-06T12:16:28.799Z,42.83
2023-01-06T12:17:28.820Z,43.26
2023-01-06T12:18:28.668Z,45.16
2023-01-06T12:19:28.656Z,43.71
2023-01-06T12:20:28.672Z,42.43
2023-01-06T12:21:28.743Z,44.06
2023-01-06T12:22:28.638Z,43.14
2023-01-06T12:23:28.613Z,43.65
2023-01-06T12:24:28.604Z,43.14
2023-01-06T12:25:36.235Z,42.92
2023-01-06T12:26:36.128Z,43.65
2023-01-06T12:27:36.091Z,43.61
2023-01-06T12:28:37.131Z,44.81
2023-01-06T12:29:36.068Z,42.68
2023-01-06T12:30:37.165Z,43.90
2023-01-06T12:31:37.056Z,42.98
2023-01-06T12:32:36.051Z,43.02
2023-01-06T12:33:36.035Z,43.55
2023-01-06T12:34:36.040Z,45.69
2023-01-06T12:35:28.480Z,46.30
2023-01-06T12:36:28.476Z,45.57
2023-01-06T12:37:28.464Z,44.96
2023-01-06T12:38:36.254Z,44.78
2023-01-06T12:39:28.502Z,44.59
2023-01-06T12:40:28.450Z,43.69
2023-01-06T12:41:28.571Z,45.32
2023-01-06T12:42:28.410Z,44.79
2023-01-06T12:43:28.397Z,44.38
2023-01-06T12:44:28.399Z,45.89
2023-01-06T12:45:28.400Z,45.51
2023-01-06T12:46:28.482Z,45.94
2023-01-06T12:47:28.419Z,45.10
2023-01-06T12:48:28.360Z,45.94
2023-01-06T12:49:28.363Z,45.53
2023-01-06T12:50:28.350Z,45.61
2023-01-06T12:51:28.314Z,45.18
2023-01-06T12:52:28.302Z,45.51
2023-01-06T12:53:28.300Z,44.90